Time;durP1;ratioP1;P1;durP2;ratioP2;P2;SDS_P1;SDS_P2;PMS_P1;PMS_P2;Temp;Humidity;BMP_temperature;BMP_pressure;BME280_temperature;BME280_humidity;BME280_pressure;Samples;Min_cycle;Max_cycle;Signal;HPM_P1;HPM_P2
2021/07/18 00:01:37;;;;;;;;;11.00;8.00;;;;;;;;4687647;30;45609;-77
2021/07/18 00:04:02;;;;;;;;;12.00;7.00;;;;;;;;4686464;30;45638;-78
2021/07/18 00:06:27;;;;;;;;;7.00;7.00;;;;;;;;4676006;30;46053;-75
2021/07/18 00:08:55;;;;;;;;;10.00;7.00;;;;;;;;4670917;30;46196;-76
2021/07/18 00:11:21;;;;;;;;;8.25;8.25;;;;;;;;4676311;30;45606;-75
2021/07/18 00:13:46;;;;;;;;;10.75;9.50;;;;;;;;4671638;30;45878;-75
2021/07/18 00:16:11;;;;;;;;;9.50;8.00;;;;;;;;4669857;30;47253;-75
2021/07/18 00:18:36;;;;;;;;;9.50;8.00;;;;;;;;4672355;30;53571;-75
2021/07/18 00:21:04;;;;;;;;;8.50;8.00;;;;;;;;4691833;30;45380;-75
2021/07/18 00:23:30;;;;;;;;;8.75;7.00;;;;;;;;4688271;30;45543;-75
2021/07/18 00:25:55;;;;;;;;;9.50;8.25;;;;;;;;4683592;30;48803;-75
2021/07/18 00:28:20;;;;;;;;;11.25;9.25;;;;;;;;4686125;30;48718;-75
2021/07/18 00:30:45;;;;;;;;;11.50;8.25;;;;;;;;4685913;30;45633;-75
2021/07/18 00:33:11;;;;;;;;;11.25;7.00;;;;;;;;4690344;30;45571;-76
2021/07/18 00:35:36;;;;;;;;;9.00;7.00;;;;;;;;4671224;30;59265;-75
2021/07/18 00:38:01;;;;;;;;;12.50;8.50;;;;;;;;4689329;30;45470;-76
2021/07/18 00:40:27;;;;;;;;;10.75;8.00;;;;;;;;4683824;30;45026;-75
2021/07/18 00:42:52;;;;;;;;;9.75;8.50;;;;;;;;4668122;30;45546;-75
2021/07/18 00:45:17;;;;;;;;;7.25;6.00;;;;;;;;4688901;30;47330;-76
2021/07/18 00:47:43;;;;;;;;;8.00;8.00;;;;;;;;4687153;30;45770;-75
2021/07/18 00:50:09;;;;;;;;;10.50;8.00;;;;;;;;4671379;30;45682;-75
2021/07/18 00:52:35;;;;;;;;;6.75;6.75;;;;;;;;4691371;30;45713;-76
2021/07/18 00:55:00;;;;;;;;;9.00;8.00;;;;;;;;4690003;30;46246;-75
2021/07/18 00:57:26;;;;;;;;;12.00;8.00;;;;;;;;4676565;30;45544;-75
2021/07/18 00:59:52;;;;;;;;;10.50;8.25;;;;;;;;4687419;30;45469;-75
2021/07/18 01:02:17;;;;;;;;;8.50;8.50;;;;;;;;4689872;30;46210;-75
2021/07/18 01:04:42;;;;;;;;;10.00;9.25;;;;;;;;4678399;30;46122;-75
2021/07/18 01:07:08;;;;;;;;;9.00;7.00;;;;;;;;4681821;30;45597;-75
2021/07/18 01:09:34;;;;;;;;;9.50;8.25;;;;;;;;4689473;30;45688;-75
2021/07/18 01:11:59;;;;;;;;;9.00;8.25;;;;;;;;4675296;30;50513;-75
2021/07/18 01:14:25;;;;;;;;;13.00;8.00;;;;;;;;4689184;30;46347;-76
2021/07/18 01:16:52;;;;;;;;;10.75;8.50;;;;;;;;4689052;30;46049;-75
2021/07/18 01:19:21;;;;;;;;;10.75;8.50;;;;;;;;4688198;30;45593;-76
2021/07/18 01:22:12;;;;;;;;;7.75;7.00;;;;;;;;4687993;30;45518;-75
2021/07/18 01:24:38;;;;;;;;;9.00;8.00;;;;;;;;4633892;30;46093;-76
2021/07/18 01:27:04;;;;;;;;;8.00;8.00;;;;;;;;4638798;30;45727;-75
2021/07/18 01:29:29;;;;;;;;;9.00;8.25;;;;;;;;4634115;30;45472;-75
2021/07/18 01:31:55;;;;;;;;;8.75;7.00;;;;;;;;4621813;30;45556;-75
2021/07/18 01:34:20;;;;;;;;;7.75;7.75;;;;;;;;4634692;30;45661;-76
2021/07/18 01:36:46;;;;;;;;;12.50;10.00;;;;;;;;4633204;30;45814;-76
2021/07/18 01:39:15;;;;;;;;;10.25;10.25;;;;;;;;4625534;30;45700;-77
2021/07/18 01:41:40;;;;;;;;;10.50;7.50;;;;;;;;4636909;30;45767;-77
2021/07/18 01:44:08;;;;;;;;;8.50;7.75;;;;;;;;4620715;30;48421;-77
2021/07/18 01:46:34;;;;;;;;;9.00;7.25;;;;;;;;4637969;30;45583;-77
2021/07/18 01:49:00;;;;;;;;;7.00;7.00;;;;;;;;4634386;30;45576;-77
2021/07/18 01:51:26;;;;;;;;;8.75;6.75;;;;;;;;4635605;30;45515;-77
2021/07/18 01:53:52;;;;;;;;;9.00;9.00;;;;;;;;4631614;30;46828;-77
2021/07/18 01:56:18;;;;;;;;;6.75;6.75;;;;;;;;4630032;30;47746;-78
2021/07/18 01:58:43;;;;;;;;;9.00;7.25;;;;;;;;4631743;30;47059;-77
2021/07/18 02:01:08;;;;;;;;;8.00;6.00;;;;;;;;4648692;30;45572;-77
2021/07/18 02:03:34;;;;;;;;;8.50;7.75;;;;;;;;4689088;30;46073;-77
2021/07/18 02:05:59;;;;;;;;;8.00;7.33;;;;;;;;4688253;30;45934;-77
2021/07/18 02:08:24;;;;;;;;;10.50;8.25;;;;;;;;4686468;30;45861;-77
2021/07/18 02:10:50;;;;;;;;;10.25;7.25;;;;;;;;4685408;30;45802;-77
2021/07/18 02:13:16;;;;;;;;;7.00;7.00;;;;;;;;4684766;30;46585;-77
2021/07/18 02:15:42;;;;;;;;;10.75;8.25;;;;;;;;4685787;30;46385;-77
2021/07/18 02:18:07;;;;;;;;;8.50;7.00;;;;;;;;4689542;30;45480;-77
2021/07/18 02:20:33;;;;;;;;;12.50;8.50;;;;;;;;4686653;30;45676;-76
2021/07/18 02:23:03;;;;;;;;;9.75;8.50;;;;;;;;4683844;30;45631;-77
2021/07/18 02:25:29;;;;;;;;;10.00;8.00;;;;;;;;4669588;30;45958;-78
2021/07/18 02:27:55;;;;;;;;;7.75;7.75;;;;;;;;4656276;30;45863;-76
2021/07/18 02:30:22;;;;;;;;;11.75;8.00;;;;;;;;4689735;30;45822;-77
2021/07/18 02:32:48;;;;;;;;;8.50;7.25;;;;;;;;4682684;30;46232;-77
2021/07/18 02:35:14;;;;;;;;;9.25;7.25;;;;;;;;4685287;30;46568;-77
2021/07/18 02:37:43;;;;;;;;;8.00;6.00;;;;;;;;4680072;30;45592;-77
2021/07/18 02:40:09;;;;;;;;;6.75;5.50;;;;;;;;4662457;30;45507;-77
2021/07/18 02:42:35;;;;;;;;;11.50;8.00;;;;;;;;4686448;30;46553;-77
2021/07/18 02:45:00;;;;;;;;;8.75;5.75;;;;;;;;4687591;30;62281;-77
2021/07/18 02:47:25;;;;;;;;;10.50;7.75;;;;;;;;4683420;30;45888;-77
2021/07/18 02:49:50;;;;;;;;;11.00;8.00;;;;;;;;4688778;30;45660;-77
2021/07/18 02:52:36;;;;;;;;;11.25;9.00;;;;;;;;4667952;30;47902;-77
2021/07/18 02:55:02;;;;;;;;;7.75;7.75;;;;;;;;4682523;30;45492;-77
2021/07/18 02:57:29;;;;;;;;;8.00;6.50;;;;;;;;4691206;30;45516;-77
2021/07/18 02:59:55;;;;;;;;;8.00;7.75;;;;;;;;4684318;30;45398;-77
2021/07/18 03:02:22;;;;;;;;;12.50;7.50;;;;;;;;4667080;30;47178;-77
2021/07/18 03:04:47;;;;;;;;;7.75;7.25;;;;;;;;4685432;30;45561;-77
2021/07/18 03:07:15;;;;;;;;;9.00;7.25;;;;;;;;4684015;30;45463;-77
2021/07/18 03:09:40;;;;;;;;;9.75;7.75;;;;;;;;4684533;30;45755;-77
2021/07/18 03:12:06;;;;;;;;;9.00;7.00;;;;;;;;4685072;30;47442;-76
2021/07/18 03:14:31;;;;;;;;;7.50;7.50;;;;;;;;4668682;30;45778;-76
2021/07/18 03:17:00;;;;;;;;;8.75;7.75;;;;;;;;4668406;30;45684;-77
2021/07/18 03:19:25;;;;;;;;;12.75;7.00;;;;;;;;4657663;30;45778;-77
2021/07/18 03:21:50;;;;;;;;;7.75;7.00;;;;;;;;4665413;30;47399;-77
2021/07/18 03:24:16;;;;;;;;;7.25;7.00;;;;;;;;4671108;30;45523;-76
2021/07/18 03:26:41;;;;;;;;;9.75;6.50;;;;;;;;4667983;30;45480;-77
2021/07/18 03:29:09;;;;;;;;;7.75;7.75;;;;;;;;4686113;30;60537;-77
2021/07/18 03:31:34;;;;;;;;;8.75;7.00;;;;;;;;4685141;30;46461;-77
2021/07/18 03:33:59;;;;;;;;;5.50;5.25;;;;;;;;4669069;30;46278;-77
2021/07/18 03:36:25;;;;;;;;;8.00;8.00;;;;;;;;4688582;30;45492;-76
2021/07/18 03:38:50;;;;;;;;;10.00;7.25;;;;;;;;4683311;30;45642;-77
2021/07/18 03:41:19;;;;;;;;;8.00;5.67;;;;;;;;4685752;30;49546;-77
2021/07/18 03:43:53;;;;;;;;;11.75;5.75;;;;;;;;4683226;30;45490;-77
2021/07/18 03:46:18;;;;;;;;;10.75;6.50;;;;;;;;4681057;30;45595;-77
2021/07/18 03:48:44;;;;;;;;;9.75;9.00;;;;;;;;4681420;30;47040;-77
2021/07/18 03:51:09;;;;;;;;;10.25;7.75;;;;;;;;4688365;30;46066;-77
2021/07/18 03:53:34;;;;;;;;;10.25;8.00;;;;;;;;4668112;30;45498;-76
2021/07/18 03:56:00;;;;;;;;;11.00;6.25;;;;;;;;4683731;30;45599;-77
2021/07/18 03:58:27;;;;;;;;;10.00;8.75;;;;;;;;4684167;30;45693;-76
2021/07/18 04:00:53;;;;;;;;;11.25;8.00;;;;;;;;4666233;30;48070;-76
2021/07/18 04:03:18;;;;;;;;;8.75;7.50;;;;;;;;4688283;30;45525;-76
2021/07/18 04:05:43;;;;;;;;;12.50;7.25;;;;;;;;4667515;30;45650;-77
2021/07/18 04:10:54;;;;;;;;;10.00;9.00;;;;;;;;4678102;30;45786;-76
2021/07/18 04:13:19;;;;;;;;;7.50;7.50;;;;;;;;4683168;30;45503;-76
2021/07/18 04:15:44;;;;;;;;;11.00;7.50;;;;;;;;4680137;30;45889;-77
2021/07/18 04:18:10;;;;;;;;;9.00;7.00;;;;;;;;4687863;30;45594;-76
2021/07/18 04:20:36;;;;;;;;;8.25;7.00;;;;;;;;4679736;30;45892;-76
2021/07/18 04:23:04;;;;;;;;;9.00;7.50;;;;;;;;4686320;30;55543;-76
2021/07/18 04:25:29;;;;;;;;;9.25;7.25;;;;;;;;4685707;30;45669;-77
2021/07/18 04:27:54;;;;;;;;;10.00;8.00;;;;;;;;4681201;30;45749;-77
2021/07/18 04:30:20;;;;;;;;;12.00;8.00;;;;;;;;4676063;30;45646;-76
2021/07/18 04:32:45;;;;;;;;;8.50;8.25;;;;;;;;4686932;30;45825;-77
2021/07/18 04:35:11;;;;;;;;;9.50;6.75;;;;;;;;4672696;30;45521;-77
2021/07/18 04:37:37;;;;;;;;;7.50;7.50;;;;;;;;4684152;30;47041;-77
2021/07/18 04:40:03;;;;;;;;;8.25;7.00;;;;;;;;4687149;30;45743;-77
2021/07/18 04:42:28;;;;;;;;;10.75;7.75;;;;;;;;4688194;30;45534;-77
2021/07/18 04:44:54;;;;;;;;;12.50;7.75;;;;;;;;4685191;30;45696;-77
2021/07/18 04:47:19;;;;;;;;;8.00;8.00;;;;;;;;4671620;30;45487;-77
2021/07/18 04:49:45;;;;;;;;;11.00;7.00;;;;;;;;4688730;30;46634;-76
2021/07/18 04:52:10;;;;;;;;;7.75;6.75;;;;;;;;4668820;30;48244;-77
2021/07/18 04:54:35;;;;;;;;;9.25;7.75;;;;;;;;4686827;30;45907;-77
2021/07/18 04:57:01;;;;;;;;;10.75;8.25;;;;;;;;4690755;30;45569;-77
2021/07/18 04:59:26;;;;;;;;;7.67;6.33;;;;;;;;4665963;30;46846;-77
2021/07/18 05:01:53;;;;;;;;;11.75;8.25;;;;;;;;4685266;30;45443;-77
2021/07/18 05:04:19;;;;;;;;;11.00;8.00;;;;;;;;4669218;30;45674;-76
2021/07/18 05:06:44;;;;;;;;;8.00;5.50;;;;;;;;4684120;30;46007;-77
2021/07/18 05:09:09;;;;;;;;;10.50;7.00;;;;;;;;4690103;30;45623;-77
2021/07/18 05:11:34;;;;;;;;;8.00;7.00;;;;;;;;4686685;30;45595;-76
2021/07/18 05:14:00;;;;;;;;;9.67;8.00;;;;;;;;4685665;30;45545;-77
2021/07/18 05:16:25;;;;;;;;;8.00;6.75;;;;;;;;4669236;30;45590;-76
2021/07/18 05:18:53;;;;;;;;;10.75;8.75;;;;;;;;4682385;30;45604;-77
2021/07/18 05:21:20;;;;;;;;;7.00;7.00;;;;;;;;4687712;30;45564;-77
2021/07/18 05:23:45;;;;;;;;;5.25;4.75;;;;;;;;4670727;30;45714;-77
2021/07/18 05:26:11;;;;;;;;;8.00;7.00;;;;;;;;4685077;30;45576;-77
2021/07/18 05:28:36;;;;;;;;;8.75;6.75;;;;;;;;4685936;30;46082;-77
2021/07/18 05:31:01;;;;;;;;;6.75;6.00;;;;;;;;4684351;30;45574;-77
2021/07/18 05:33:27;;;;;;;;;11.50;6.00;;;;;;;;4689992;30;45650;-77
2021/07/18 05:35:52;;;;;;;;;8.50;6.00;;;;;;;;4684012;30;47641;-76
2021/07/18 05:38:20;;;;;;;;;7.75;7.00;;;;;;;;4668070;30;46235;-77
2021/07/18 05:40:47;;;;;;;;;6.75;6.75;;;;;;;;4683952;30;45690;-77
2021/07/18 05:43:13;;;;;;;;;9.50;7.25;;;;;;;;4685415;30;45518;-76
2021/07/18 05:45:38;;;;;;;;;8.75;6.00;;;;;;;;4685636;30;45570;-77
2021/07/18 05:48:04;;;;;;;;;7.00;6.25;;;;;;;;4689763;30;45224;-77
2021/07/18 05:50:34;;;;;;;;;5.75;5.75;;;;;;;;4685200;30;45575;-77
2021/07/18 05:53:00;;;;;;;;;8.00;6.00;;;;;;;;4685513;30;45530;-77
2021/07/18 05:55:25;;;;;;;;;8.25;7.00;;;;;;;;4686759;30;45605;-77
2021/07/18 05:57:51;;;;;;;;;7.25;7.25;;;;;;;;4681543;30;47557;-77
2021/07/18 06:00:17;;;;;;;;;8.25;6.75;;;;;;;;4689261;30;45487;-77
2021/07/18 06:02:42;;;;;;;;;7.75;7.00;;;;;;;;4685509;30;45566;-77
2021/07/18 06:05:08;;;;;;;;;7.00;5.25;;;;;;;;4684579;30;46300;-76
2021/07/18 06:07:33;;;;;;;;;7.75;6.25;;;;;;;;4684239;30;45532;-76
2021/07/18 06:10:02;;;;;;;;;9.00;6.00;;;;;;;;4687966;30;45585;-76
2021/07/18 06:12:27;;;;;;;;;7.25;7.00;;;;;;;;4689295;30;45531;-77
2021/07/18 06:14:53;;;;;;;;;6.50;5.00;;;;;;;;4686964;30;61999;-76
2021/07/18 06:17:18;;;;;;;;;6.00;5.00;;;;;;;;4668836;30;48093;-77
2021/07/18 06:19:44;;;;;;;;;7.00;5.75;;;;;;;;4685412;30;45485;-76
2021/07/18 06:22:09;;;;;;;;;5.00;5.00;;;;;;;;4686979;30;45561;-77
2021/07/18 06:24:34;;;;;;;;;7.50;6.25;;;;;;;;4670510;30;47098;-76
2021/07/18 06:27:03;;;;;;;;;4.75;4.75;;;;;;;;4685811;30;46041;-77
2021/07/18 06:29:28;;;;;;;;;4.50;3.50;;;;;;;;4683695;30;45495;-77
2021/07/18 06:31:53;;;;;;;;;6.50;4.50;;;;;;;;4688019;30;45578;-76
2021/07/18 06:34:19;;;;;;;;;6.00;4.50;;;;;;;;4682414;30;45858;-77
2021/07/18 06:36:44;;;;;;;;;4.50;3.75;;;;;;;;4685689;30;45580;-77
2021/07/18 06:39:10;;;;;;;;;6.25;4.25;;;;;;;;4673387;30;46010;-77
2021/07/18 06:41:35;;;;;;;;;5.75;4.50;;;;;;;;4684808;30;45620;-77
2021/07/18 06:44:02;;;;;;;;;4.00;4.00;;;;;;;;4667216;30;45450;-78
2021/07/18 06:46:30;;;;;;;;;4.75;4.25;;;;;;;;4668708;30;47410;-78
2021/07/18 06:48:55;;;;;;;;;5.00;4.00;;;;;;;;4668362;30;45648;-77
2021/07/18 06:51:21;;;;;;;;;4.75;4.00;;;;;;;;4674029;30;45721;-78
2021/07/18 06:53:46;;;;;;;;;4.50;3.50;;;;;;;;4685012;30;45525;-78
2021/07/18 06:56:12;;;;;;;;;3.50;3.50;;;;;;;;4683990;30;45525;-77
2021/07/18 06:58:37;;;;;;;;;3.75;3.50;;;;;;;;4686388;30;45555;-77
2021/07/18 07:01:02;;;;;;;;;5.50;4.25;;;;;;;;4683752;30;45674;-77
2021/07/18 07:03:30;;;;;;;;;6.00;4.00;;;;;;;;4688802;30;46913;-78
2021/07/18 07:05:55;;;;;;;;;6.00;4.50;;;;;;;;4667451;30;47102;-77
2021/07/18 07:08:21;;;;;;;;;2.00;2.00;;;;;;;;4684932;30;45702;-77
2021/07/18 07:10:48;;;;;;;;;5.25;3.25;;;;;;;;4683749;30;45687;-77
2021/07/18 07:13:13;;;;;;;;;4.75;4.50;;;;;;;;4683568;30;45685;-77
2021/07/18 07:15:38;;;;;;;;;4.00;4.00;;;;;;;;4684371;30;46228;-78
2021/07/18 07:18:27;;;;;;;;;6.00;3.50;;;;;;;;4685027;30;45680;-79
2021/07/18 07:20:52;;;;;;;;;4.25;4.25;;;;;;;;4673790;30;45678;-79
2021/07/18 07:36:09;;;;;;;;;2.00;2.00;;;;;;;;4540784;31;45565;-80
2021/07/18 07:46:47;;;;;;;;;4.00;3.00;;;;;;;;4972348;24;45710;-92
2021/07/18 07:49:12;;;;;;;;;5.00;4.00;;;;;;;;4699272;30;45318;-90
2021/07/18 07:51:38;;;;;;;;;4.75;4.75;;;;;;;;4700832;30;45808;-93
2021/07/18 07:54:03;;;;;;;;;2.25;2.25;;;;;;;;4701150;30;45449;-94
2021/07/18 07:56:28;;;;;;;;;5.00;4.00;;;;;;;;4689984;30;45564;-91
2021/07/18 07:58:54;;;;;;;;;4.00;3.00;;;;;;;;4699085;30;45648;-93
2021/07/18 08:01:19;;;;;;;;;3.00;3.00;;;;;;;;4700524;30;45843;-93
2021/07/18 08:03:44;;;;;;;;;2.00;2.00;;;;;;;;4694521;30;45269;-95
2021/07/18 08:06:12;;;;;;;;;2.67;2.67;;;;;;;;4699056;30;45445;-94
2021/07/18 08:08:38;;;;;;;;;2.25;2.25;;;;;;;;4692465;24;47025;-94
2021/07/18 08:11:03;;;;;;;;;2.50;2.50;;;;;;;;4685119;30;53672;-95
2021/07/18 08:13:28;;;;;;;;;2.75;2.75;;;;;;;;4683779;30;45591;-94
2021/07/18 08:46:31;;;;;;;;;1.00;1.00;;;;;;;;4644926;30;45570;-77
2021/07/18 08:52:02;;;;;;;;;3.50;3.50;;;;;;;;4865695;24;45994;-94
2021/07/18 08:57:03;;;;;;;;;4.00;3.00;;;;;;;;3146486;27;45339;-76
2021/07/18 08:59:35;;;;;;;;;1.50;1.25;;;;;;;;4705620;30;45652;-76
2021/07/18 09:02:20;;;;;;;;;3.75;2.00;;;;;;;;4756778;24;45453;-79
2021/07/18 09:13:10;;;;;;;;;2.75;2.75;;;;;;;;5341668;24;46155;-93
2021/07/18 09:23:30;;;;;;;;;2.50;2.50;;;;;;;;1175216;24;46290;-80
2021/07/18 09:34:46;;;;;;;;;1.25;1.25;;;;;;;;4686097;30;47257;-95
2021/07/18 09:37:14;;;;;;;;;2.00;2.00;;;;;;;;4667022;30;45429;-94
2021/07/18 09:39:40;;;;;;;;;3.00;2.50;;;;;;;;4672900;30;44880;-96
2021/07/18 09:42:06;;;;;;;;;3.00;3.00;;;;;;;;4677990;30;45483;-95
2021/07/18 09:44:45;;;;;;;;;1.00;1.00;;;;;;;;4664166;30;47221;-94
2021/07/18 09:47:10;;;;;;;;;1.00;1.00;;;;;;;;4678073;30;45376;-93
2021/07/18 09:49:36;;;;;;;;;1.25;1.25;;;;;;;;4679590;30;45380;-93
2021/07/18 09:52:19;;;;;;;;;1.25;1.25;;;;;;;;4681725;30;45673;-96
2021/07/18 09:54:49;;;;;;;;;2.00;1.00;;;;;;;;4665659;30;46521;-93
2021/07/18 09:57:30;;;;;;;;;2.00;1.75;;;;;;;;4681313;30;45402;-95
2021/07/18 09:59:56;;;;;;;;;2.00;2.00;;;;;;;;4688072;30;45567;-93
2021/07/18 10:02:25;;;;;;;;;1.00;1.00;;;;;;;;4680836;30;45507;-93
2021/07/18 10:04:51;;;;;;;;;2.50;1.00;;;;;;;;4672703;30;45417;-93
2021/07/18 10:07:16;;;;;;;;;2.00;2.00;;;;;;;;4680786;30;45356;-93
2021/07/18 10:32:52;;;;;;;;;3.00;3.00;;;;;;;;4907675;24;45746;-93
2021/07/18 10:35:19;;;;;;;;;4.25;4.00;;;;;;;;4700802;30;45341;-93
2021/07/18 10:37:44;;;;;;;;;4.00;4.00;;;;;;;;4686496;30;47318;-94
2021/07/18 10:40:11;;;;;;;;;2.00;2.00;;;;;;;;4691548;30;45830;-91
2021/07/18 10:42:36;;;;;;;;;3.00;3.00;;;;;;;;4688790;30;45366;-92
2021/07/18 10:45:18;;;;;;;;;3.00;3.00;;;;;;;;4702039;30;45721;-94
2021/07/18 10:47:56;;;;;;;;;4.00;3.00;;;;;;;;4686405;30;47399;-93
2021/07/18 10:50:41;;;;;;;;;5.50;3.75;;;;;;;;4676326;30;45316;-95
2021/07/18 10:53:20;;;;;;;;;9.25;9.25;;;;;;;;4683781;30;45349;-93
2021/07/18 10:55:45;;;;;;;;;4.75;4.00;;;;;;;;4696143;30;45000;-93
2021/07/18 11:03:34;;;;;;;;;5.50;4.25;;;;;;;;1104165;24;46118;-81
2021/07/18 11:22:03;;;;;;;;;5.25;5.25;;;;;;;;4982747;24;46047;-89
2021/07/18 11:24:47;;;;;;;;;7.00;7.00;;;;;;;;4677936;30;45450;-90
2021/07/18 11:27:31;;;;;;;;;6.75;4.25;;;;;;;;4696576;30;45418;-91
2021/07/18 11:29:58;;;;;;;;;5.00;5.00;;;;;;;;4684437;30;47021;-89
2021/07/18 11:32:43;;;;;;;;;5.50;4.75;;;;;;;;4694452;30;45363;-91
2021/07/18 11:35:35;;;;;;;;;17.00;11.75;;;;;;;;4693360;30;45197;-90
2021/07/18 11:40:39;;;;;;;;;8.75;7.00;;;;;;;;5288229;24;46873;-89
2021/07/18 11:45:39;;;;;;;;;7.50;7.50;;;;;;;;4734005;24;46264;-91
2021/07/18 11:48:11;;;;;;;;;9.25;7.00;;;;;;;;4680018;30;45539;-90
2021/07/18 11:56:45;;;;;;;;;10.00;8.00;;;;;;;;4704968;30;45333;-91
2021/07/18 11:59:17;;;;;;;;;4.50;3.75;;;;;;;;4694839;30;45483;-91
2021/07/18 12:01:49;;;;;;;;;7.25;5.00;;;;;;;;4676123;30;48343;-91
2021/07/18 12:13:34;;;;;;;;;8.50;6.50;;;;;;;;4638825;30;45337;-91
2021/07/18 12:21:21;;;;;;;;;7.00;6.00;;;;;;;;5561289;24;45991;-96
2021/07/18 12:24:05;;;;;;;;;5.25;4.00;;;;;;;;4681767;30;47424;-95
2021/07/18 12:26:31;;;;;;;;;7.00;7.00;;;;;;;;4689371;30;45568;-94
2021/07/18 12:29:02;;;;;;;;;5.25;5.25;;;;;;;;4689550;30;45660;-94
2021/07/18 12:31:28;;;;;;;;;7.00;4.25;;;;;;;;4693298;30;45392;-92
2021/07/18 12:33:54;;;;;;;;;9.00;6.00;;;;;;;;4694612;30;46217;-94
2021/07/18 12:36:19;;;;;;;;;7.25;5.50;;;;;;;;4694610;30;45537;-94
2021/07/18 12:38:44;;;;;;;;;7.00;5.00;;;;;;;;4697798;30;45518;-94
2021/07/18 12:41:10;;;;;;;;;5.00;5.00;;;;;;;;4688776;30;44955;-93
2021/07/18 12:43:38;;;;;;;;;4.25;4.25;;;;;;;;4676742;30;48213;-94
2021/07/18 12:46:03;;;;;;;;;4.75;4.75;;;;;;;;4687354;30;45637;-94
2021/07/18 12:48:28;;;;;;;;;5.00;5.00;;;;;;;;4693456;30;45442;-93
2021/07/18 12:50:53;;;;;;;;;4.00;4.00;;;;;;;;4692943;30;45469;-93
2021/07/18 12:53:19;;;;;;;;;3.33;3.33;;;;;;;;4692647;30;46926;-93
2021/07/18 12:55:47;;;;;;;;;6.00;4.00;;;;;;;;4695958;30;45673;-95
2021/07/18 12:58:12;;;;;;;;;3.75;3.50;;;;;;;;4695795;30;45580;-94
2021/07/18 13:00:37;;;;;;;;;5.67;4.67;;;;;;;;4686168;30;45563;-93
2021/07/18 13:03:13;;;;;;;;;5.00;4.75;;;;;;;;4690139;30;47134;-94
2021/07/18 13:05:39;;;;;;;;;5.75;3.25;;;;;;;;4692890;30;45558;-96
2021/07/18 13:08:04;;;;;;;;;5.00;4.00;;;;;;;;4693135;30;49530;-94
2021/07/18 13:10:35;;;;;;;;;5.75;4.75;;;;;;;;4693726;30;45546;-96
2021/07/18 13:13:01;;;;;;;;;4.75;4.75;;;;;;;;4675009;30;48021;-93
2021/07/18 13:15:27;;;;;;;;;6.00;5.00;;;;;;;;4673440;30;46166;-91
2021/07/18 13:18:00;;;;;;;;;8.00;5.00;;;;;;;;4684864;30;45506;-93
2021/07/18 13:20:29;;;;;;;;;5.50;4.50;;;;;;;;4682399;30;45763;-94
2021/07/18 13:22:57;;;;;;;;;5.25;5.00;;;;;;;;4683642;30;46230;-95
2021/07/18 13:25:23;;;;;;;;;7.00;5.25;;;;;;;;4685363;30;45922;-94
2021/07/18 13:27:52;;;;;;;;;4.75;4.00;;;;;;;;4689435;30;45467;-94
2021/07/18 13:30:20;;;;;;;;;8.25;4.00;;;;;;;;4659083;30;46318;-95
2021/07/18 13:32:45;;;;;;;;;4.75;4.25;;;;;;;;4685013;30;47367;-95
2021/07/18 13:35:11;;;;;;;;;6.00;5.25;;;;;;;;4685751;30;51859;-93
2021/07/18 13:37:38;;;;;;;;;4.00;4.00;;;;;;;;4690319;30;45589;-94
2021/07/18 13:40:20;;;;;;;;;4.00;4.00;;;;;;;;4677363;30;45467;-93
2021/07/18 13:42:45;;;;;;;;;5.25;5.25;;;;;;;;4677928;30;45881;-95
2021/07/18 13:45:11;;;;;;;;;4.50;4.50;;;;;;;;4683140;30;45463;-93
2021/07/18 13:47:37;;;;;;;;;6.25;5.00;;;;;;;;4673132;30;45556;-93
2021/07/18 13:50:02;;;;;;;;;6.00;6.00;;;;;;;;4677203;30;45807;-94
2021/07/18 13:52:27;;;;;;;;;6.00;5.00;;;;;;;;4691077;30;45476;-92
2021/07/18 13:54:53;;;;;;;;;5.67;4.33;;;;;;;;4675141;30;46378;-94
2021/07/18 13:57:18;;;;;;;;;5.25;4.00;;;;;;;;4674557;30;45790;-92
2021/07/18 13:59:43;;;;;;;;;4.25;4.00;;;;;;;;4681676;30;45728;-94
2021/07/18 14:02:09;;;;;;;;;8.75;6.00;;;;;;;;4673034;30;47508;-93
2021/07/18 14:04:35;;;;;;;;;5.50;5.00;;;;;;;;4673602;30;45930;-91
2021/07/18 14:07:00;;;;;;;;;5.67;5.33;;;;;;;;4680474;30;46059;-94
2021/07/18 14:09:25;;;;;;;;;7.00;7.00;;;;;;;;4689430;30;45967;-94
2021/07/18 14:11:51;;;;;;;;;6.25;4.00;;;;;;;;4695265;30;45603;-93
2021/07/18 14:14:16;;;;;;;;;7.50;5.25;;;;;;;;4698157;30;45779;-93
2021/07/18 14:21:52;;;;;;;;;4.75;4.50;;;;;;;;5117735;24;45947;-94
2021/07/18 14:24:17;;;;;;;;;4.75;3.75;;;;;;;;4714478;30;46140;-94
2021/07/18 14:26:43;;;;;;;;;5.75;5.00;;;;;;;;4693746;30;45383;-94
2021/07/18 14:29:09;;;;;;;;;5.75;4.25;;;;;;;;4695177;30;45423;-94
2021/07/18 14:31:36;;;;;;;;;7.75;6.00;;;;;;;;4699623;30;46637;-95
2021/07/18 14:34:01;;;;;;;;;7.00;5.75;;;;;;;;4711534;30;45552;-96
2021/07/18 14:36:29;;;;;;;;;6.75;6.00;;;;;;;;4683423;30;45413;-95
2021/07/18 14:38:54;;;;;;;;;8.50;5.00;;;;;;;;4697977;30;45558;-96
2021/07/18 14:41:19;;;;;;;;;5.75;4.75;;;;;;;;4697374;30;46730;-94
2021/07/18 14:43:44;;;;;;;;;6.00;6.00;;;;;;;;4675679;30;45990;-96
2021/07/18 14:46:09;;;;;;;;;12.50;5.50;;;;;;;;4703478;30;45697;-93
2021/07/18 14:48:35;;;;;;;;;9.00;5.25;;;;;;;;4680420;30;45503;-95
2021/07/18 14:51:00;;;;;;;;;7.00;5.00;;;;;;;;4677714;30;47327;-96
2021/07/18 14:53:25;;;;;;;;;2.50;2.50;;;;;;;;4699796;30;45524;-93
2021/07/18 14:55:51;;;;;;;;;5.75;5.75;;;;;;;;4704826;30;45336;-93
2021/07/18 14:58:16;;;;;;;;;7.00;5.25;;;;;;;;4678295;30;45640;-95
2021/07/18 15:00:41;;;;;;;;;6.00;5.75;;;;;;;;4702062;30;46315;-94
2021/07/18 15:03:06;;;;;;;;;7.33;7.00;;;;;;;;4699226;30;45285;-94
2021/07/18 15:05:32;;;;;;;;;7.75;7.75;;;;;;;;4697769;30;45499;-95
2021/07/18 15:07:57;;;;;;;;;6.25;6.25;;;;;;;;4683778;30;45563;-95
2021/07/18 15:10:24;;;;;;;;;4.25;2.25;;;;;;;;4681792;30;46948;-96
2021/07/18 15:12:50;;;;;;;;;6.00;5.00;;;;;;;;4714509;30;45675;-96
2021/07/18 15:15:16;;;;;;;;;5.00;5.00;;;;;;;;4692113;30;47734;-95
2021/07/18 15:17:41;;;;;;;;;7.25;5.25;;;;;;;;4692148;30;45428;-94
2021/07/18 15:20:08;;;;;;;;;5.50;5.25;;;;;;;;4688656;30;47443;-94
2021/07/18 15:22:33;;;;;;;;;6.00;5.25;;;;;;;;4702023;30;46057;-93
2021/07/18 15:24:59;;;;;;;;;8.00;7.00;;;;;;;;4699156;30;45734;-94
2021/07/18 15:27:25;;;;;;;;;7.00;5.50;;;;;;;;4704148;30;45359;-96
2021/07/18 15:29:50;;;;;;;;;6.00;6.00;;;;;;;;4700259;30;46872;-94
2021/07/18 15:32:15;;;;;;;;;5.75;5.75;;;;;;;;4693329;30;45976;-95
2021/07/18 15:34:41;;;;;;;;;7.00;7.00;;;;;;;;4679049;30;45630;-96
2021/07/18 15:37:06;;;;;;;;;5.75;4.75;;;;;;;;4691970;30;45581;-94
2021/07/18 15:39:31;;;;;;;;;8.00;6.00;;;;;;;;4704607;30;46560;-95
2021/07/18 15:41:56;;;;;;;;;8.25;6.25;;;;;;;;4690378;30;45601;-94
2021/07/18 15:44:22;;;;;;;;;6.50;4.50;;;;;;;;4693038;30;45897;-94
2021/07/18 15:46:47;;;;;;;;;5.67;5.00;;;;;;;;4705969;30;45354;-94
2021/07/18 15:49:13;;;;;;;;;7.25;5.50;;;;;;;;4713571;24;45800;-78
2021/07/18 16:01:59;;;;;;;;;8.50;5.50;;;;;;;;5075097;24;45624;-77
2021/07/18 16:04:24;;;;;;;;;6.50;5.50;;;;;;;;4653672;30;45645;-76
2021/07/18 16:06:49;;;;;;;;;6.00;2.25;;;;;;;;4661289;30;45637;-77
2021/07/18 16:09:15;;;;;;;;;5.00;5.00;;;;;;;;4655834;30;47153;-78
2021/07/18 16:11:40;;;;;;;;;7.00;5.00;;;;;;;;4673146;30;47506;-77
2021/07/18 16:14:06;;;;;;;;;6.00;6.00;;;;;;;;4663387;30;45750;-77
2021/07/18 16:16:31;;;;;;;;;5.00;4.00;;;;;;;;4661137;30;45925;-77
2021/07/18 16:18:56;;;;;;;;;5.00;5.00;;;;;;;;4664281;30;46740;-76
2021/07/18 16:21:22;;;;;;;;;6.50;5.75;;;;;;;;4674371;30;45583;-80
2021/07/18 16:23:47;;;;;;;;;7.00;6.25;;;;;;;;4666779;30;45606;-80
2021/07/18 16:26:13;;;;;;;;;3.00;2.50;;;;;;;;4697183;24;45636;-89
2021/07/18 16:28:38;;;;;;;;;8.50;5.25;;;;;;;;4688274;30;45777;-89
2021/07/18 16:31:03;;;;;;;;;7.00;4.00;;;;;;;;4694737;30;45794;-89
2021/07/18 16:33:28;;;;;;;;;6.00;6.00;;;;;;;;4678551;30;45420;-89
2021/07/18 16:35:54;;;;;;;;;5.50;4.00;;;;;;;;4699032;24;45617;-80
2021/07/18 16:41:19;;;;;;;;;7.25;5.50;;;;;;;;4697705;30;45525;-88
2021/07/18 16:43:44;;;;;;;;;8.00;6.00;;;;;;;;4683131;30;45453;-89
2021/07/18 16:46:10;;;;;;;;;9.00;6.67;;;;;;;;4691305;30;45649;-87
2021/07/18 16:48:35;;;;;;;;;2.00;0.00;;;;;;;;4698938;30;46299;-89
2021/07/18 16:51:01;;;;;;;;;5.50;5.50;;;;;;;;4700046;30;45734;-88
2021/07/18 16:53:26;;;;;;;;;6.00;5.00;;;;;;;;4686724;30;45537;-89
2021/07/18 16:55:51;;;;;;;;;6.00;5.00;;;;;;;;4700582;30;45638;-89
2021/07/18 16:58:19;;;;;;;;;6.50;5.75;;;;;;;;4710726;24;47861;-81
2021/07/18 17:00:44;;;;;;;;;7.25;4.50;;;;;;;;4704964;30;45557;-80
2021/07/18 17:03:11;;;;;;;;;5.00;4.75;;;;;;;;4738733;24;45530;-89
2021/07/18 17:05:37;;;;;;;;;11.00;7.00;;;;;;;;4697459;30;45459;-90
2021/07/18 17:08:02;;;;;;;;;6.50;5.00;;;;;;;;4690950;30;46549;-88
2021/07/18 17:10:28;;;;;;;;;7.75;5.00;;;;;;;;4698215;30;44948;-89
2021/07/18 17:12:56;;;;;;;;;8.67;6.33;;;;;;;;4708164;24;45447;-79
2021/07/18 17:16:05;;;;;;;;;8.00;5.25;;;;;;;;4712406;24;45528;-82
2021/07/18 17:31:36;;;;;;;;;7.75;5.25;;;;;;;;1869234;24;48064;-89
2021/07/18 17:34:02;;;;;;;;;5.00;5.00;;;;;;;;4661603;30;45443;-86
2021/07/18 17:36:29;;;;;;;;;8.75;7.00;;;;;;;;4739851;24;45594;-88
2021/07/18 17:38:54;;;;;;;;;6.00;6.00;;;;;;;;4674745;30;46196;-88
2021/07/18 17:41:20;;;;;;;;;4.33;4.00;;;;;;;;4673170;30;45476;-88
2021/07/18 17:43:45;;;;;;;;;7.00;7.00;;;;;;;;4660179;30;45639;-88
2021/07/18 17:46:11;;;;;;;;;6.67;6.00;;;;;;;;4671954;30;45532;-87